sensor_id;sensor_type;location;lat;lon;timestamp;temperature;humidity
53599;DHT22;39485;45.702;11.364;2023-03-01T00:01:50;2.40;99.90
53599;DHT22;39485;45.702;11.364;2023-03-01T00:04:16;2.40;99.90
53599;DHT22;39485;45.702;11.364;2023-03-01T00:06:45;2.40;99.90
53599;DHT22;39485;45.702;11.364;2023-03-01T00:09:14;2.40;99.90
53599;DHT22;39485;45.702;11.364;2023-03-01T00:11:41;2.40;99.90
53599;DHT22;39485;45.702;11.364;2023-03-01T00:14:07;2.30;99.90
53599;DHT22;39485;45.702;11.364;2023-03-01T00:16:38;2.30;99.90
53599;DHT22;39485;45.702;11.364;2023-03-01T00:19:06;2.30;99.90
53599;DHT22;39485;45.702;11.364;2023-03-01T00:21:32;2.30;99.90
53599;DHT22;39485;45.702;11.364;2023-03-01T00:23:59;2.20;99.90
53599;DHT22;39485;45.702;11.364;2023-03-01T00:26:25;2.20;99.90
53599;DHT22;39485;45.702;11.364;2023-03-01T00:28:52;2.20;99.90
53599;DHT22;39485;45.702;11.364;2023-03-01T00:31:21;2.20;99.90
53599;DHT22;39485;45.702;11.364;2023-03-01T00:33:47;2.20;99.90
53599;DHT22;39485;45.702;11.364;2023-03-01T00:36:14;2.10;99.90
53599;DHT22;39485;45.702;11.364;2023-03-01T00:38:43;2.10;99.90
53599;DHT22;39485;45.702;11.364;2023-03-01T00:41:12;2.10;99.90
53599;DHT22;39485;45.702;11.364;2023-03-01T00:43:38;2.00;99.90
53599;DHT22;39485;45.702;11.364;2023-03-01T00:46:09;2.00;99.90
53599;DHT22;39485;45.702;11.364;2023-03-01T00:48:35;2.00;99.90
53599;DHT22;39485;45.702;11.364;2023-03-01T00:51:09;1.90;99.90
53599;DHT22;39485;45.702;11.364;2023-03-01T00:53:35;1.90;99.90
53599;DHT22;39485;45.702;11.364;2023-03-01T00:56:02;1.90;99.90
53599;DHT22;39485;45.702;11.364;2023-03-01T00:58:27;1.90;99.90
53599;DHT22;39485;45.702;11.364;2023-03-01T01:00:53;1.90;99.90
53599;DHT22;39485;45.702;11.364;2023-03-01T01:03:19;1.80;99.90
53599;DHT22;39485;45.702;11.364;2023-03-01T01:05:45;1.80;99.90
53599;DHT22;39485;45.702;11.364;2023-03-01T01:08:11;1.80;99.90
53599;DHT22;39485;45.702;11.364;2023-03-01T01:10:36;1.80;99.90
53599;DHT22;39485;45.702;11.364;2023-03-01T01:13:03;1.70;99.90
53599;DHT22;39485;45.702;11.364;2023-03-01T01:15:29;1.70;99.90
53599;DHT22;39485;45.702;11.364;2023-03-01T01:17:58;1.60;99.90
53599;DHT22;39485;45.702;11.364;2023-03-01T01:20:24;1.60;99.90
53599;DHT22;39485;45.702;11.364;2023-03-01T01:22:49;1.50;99.90
53599;DHT22;39485;45.702;11.364;2023-03-01T01:25:16;1.50;99.90
53599;DHT22;39485;45.702;11.364;2023-03-01T01:27:42;1.50;99.90
53599;DHT22;39485;45.702;11.364;2023-03-01T01:30:08;1.50;99.90
53599;DHT22;39485;45.702;11.364;2023-03-01T01:32:34;1.50;99.90
53599;DHT22;39485;45.702;11.364;2023-03-01T01:34:59;1.50;99.90
53599;DHT22;39485;45.702;11.364;2023-03-01T01:37:25;1.50;99.90
53599;DHT22;39485;45.702;11.364;2023-03-01T01:39:57;1.50;99.90
53599;DHT22;39485;45.702;11.364;2023-03-01T01:42:23;1.40;99.90
53599;DHT22;39485;45.702;11.364;2023-03-01T01:45:29;1.40;99.90
53599;DHT22;39485;45.702;11.364;2023-03-01T01:48:00;1.40;99.90
53599;DHT22;39485;45.702;11.364;2023-03-01T01:50:26;1.40;99.90
53599;DHT22;39485;45.702;11.364;2023-03-01T01:52:53;1.40;99.90
53599;DHT22;39485;45.702;11.364;2023-03-01T01:55:24;1.40;99.90
53599;DHT22;39485;45.702;11.364;2023-03-01T01:57:57;1.40;99.90
53599;DHT22;39485;45.702;11.364;2023-03-01T02:00:26;1.40;99.90
53599;DHT22;39485;45.702;11.364;2023-03-01T02:02:57;1.40;99.90
53599;DHT22;39485;45.702;11.364;2023-03-01T02:05:29;1.40;99.90
53599;DHT22;39485;45.702;11.364;2023-03-01T02:07:58;1.40;99.90
53599;DHT22;39485;45.702;11.364;2023-03-01T02:10:25;1.40;99.90
53599;DHT22;39485;45.702;11.364;2023-03-01T02:12:52;1.40;99.90
53599;DHT22;39485;45.702;11.364;2023-03-01T02:15:18;1.40;99.90
53599;DHT22;39485;45.702;11.364;2023-03-01T02:17:44;1.40;99.90
53599;DHT22;39485;45.702;11.364;2023-03-01T02:20:25;1.40;99.90
53599;DHT22;39485;45.702;11.364;2023-03-01T02:22:53;1.40;99.90
53599;DHT22;39485;45.702;11.364;2023-03-01T02:30:40;1.40;99.90
53599;DHT22;39485;45.702;11.364;2023-03-01T02:33:26;1.50;99.90
53599;DHT22;39485;45.702;11.364;2023-03-01T02:35:54;1.40;99.90
53599;DHT22;39485;45.702;11.364;2023-03-01T02:38:21;1.40;99.90
53599;DHT22;39485;45.702;11.364;2023-03-01T02:40:49;1.40;99.90
53599;DHT22;39485;45.702;11.364;2023-03-01T02:43:16;1.40;99.90
53599;DHT22;39485;45.702;11.364;2023-03-01T02:45:53;1.40;99.90
53599;DHT22;39485;45.702;11.364;2023-03-01T02:48:19;1.40;99.90
53599;DHT22;39485;45.702;11.364;2023-03-01T02:51:22;1.40;99.90
53599;DHT22;39485;45.702;11.364;2023-03-01T02:54:09;1.40;99.90
53599;DHT22;39485;45.702;11.364;2023-03-01T02:56:37;1.30;99.90
53599;DHT22;39485;45.702;11.364;2023-03-01T02:59:03;1.40;99.90
53599;DHT22;39485;45.702;11.364;2023-03-01T03:01:29;1.30;99.90
53599;DHT22;39485;45.702;11.364;2023-03-01T03:04:07;1.30;99.90
53599;DHT22;39485;45.702;11.364;2023-03-01T03:06:33;1.30;99.90
53599;DHT22;39485;45.702;11.364;2023-03-01T03:08:59;1.30;99.90
53599;DHT22;39485;45.702;11.364;2023-03-01T03:11:25;1.30;99.90
53599;DHT22;39485;45.702;11.364;2023-03-01T03:13:51;1.30;99.90
53599;DHT22;39485;45.702;11.364;2023-03-01T03:16:17;1.40;99.90
53599;DHT22;39485;45.702;11.364;2023-03-01T03:18:43;1.40;99.90
53599;DHT22;39485;45.702;11.364;2023-03-01T03:21:10;1.40;99.90
53599;DHT22;39485;45.702;11.364;2023-03-01T03:23:37;1.50;99.90
53599;DHT22;39485;45.702;11.364;2023-03-01T03:26:03;1.60;99.90
53599;DHT22;39485;45.702;11.364;2023-03-01T03:28:30;1.60;99.90
53599;DHT22;39485;45.702;11.364;2023-03-01T03:30:56;1.60;99.90
53599;DHT22;39485;45.702;11.364;2023-03-01T03:33:22;1.60;99.90
53599;DHT22;39485;45.702;11.364;2023-03-01T03:35:49;1.70;99.90
53599;DHT22;39485;45.702;11.364;2023-03-01T03:38:17;1.70;99.90
53599;DHT22;39485;45.702;11.364;2023-03-01T03:40:46;1.70;99.90
53599;DHT22;39485;45.702;11.364;2023-03-01T03:43:17;1.70;99.90
53599;DHT22;39485;45.702;11.364;2023-03-01T03:45:45;1.70;99.90
53599;DHT22;39485;45.702;11.364;2023-03-01T03:48:11;1.70;99.90
53599;DHT22;39485;45.702;11.364;2023-03-01T03:50:38;1.70;99.90
53599;DHT22;39485;45.702;11.364;2023-03-01T03:53:11;1.80;99.90
53599;DHT22;39485;45.702;11.364;2023-03-01T03:55:38;1.80;99.90
53599;DHT22;39485;45.702;11.364;2023-03-01T03:58:08;1.80;99.90
53599;DHT22;39485;45.702;11.364;2023-03-01T04:00:36;1.90;99.90
53599;DHT22;39485;45.702;11.364;2023-03-01T04:03:02;1.90;99.90
53599;DHT22;39485;45.702;11.364;2023-03-01T04:05:28;1.90;99.90
53599;DHT22;39485;45.702;11.364;2023-03-01T04:07:53;2.00;99.90
53599;DHT22;39485;45.702;11.364;2023-03-01T04:10:29;2.00;99.90
53599;DHT22;39485;45.702;11.364;2023-03-01T04:12:55;2.10;99.90
53599;DHT22;39485;45.702;11.364;2023-03-01T04:15:21;2.10;99.90
53599;DHT22;39485;45.702;11.364;2023-03-01T04:17:50;2.10;99.90
53599;DHT22;39485;45.702;11.364;2023-03-01T04:20:19;2.10;99.90
53599;DHT22;39485;45.702;11.364;2023-03-01T04:22:59;2.20;99.90
53599;DHT22;39485;45.702;11.364;2023-03-01T04:25:33;2.20;99.90
53599;DHT22;39485;45.702;11.364;2023-03-01T04:27:59;2.20;99.90
53599;DHT22;39485;45.702;11.364;2023-03-01T04:30:25;2.20;99.90
53599;DHT22;39485;45.702;11.364;2023-03-01T04:32:50;2.10;99.90
53599;DHT22;39485;45.702;11.364;2023-03-01T04:35:16;2.10;99.90
53599;DHT22;39485;45.702;11.364;2023-03-01T04:37:42;2.10;99.90
53599;DHT22;39485;45.702;11.364;2023-03-01T04:40:08;2.10;99.90
53599;DHT22;39485;45.702;11.364;2023-03-01T04:42:42;2.10;99.90
53599;DHT22;39485;45.702;11.364;2023-03-01T04:45:08;2.10;99.90
53599;DHT22;39485;45.702;11.364;2023-03-01T04:47:42;2.10;99.90
53599;DHT22;39485;45.702;11.364;2023-03-01T04:50:10;2.10;99.90
53599;DHT22;39485;45.702;11.364;2023-03-01T04:52:37;2.10;99.90
53599;DHT22;39485;45.702;11.364;2023-03-01T04:55:03;2.10;99.90
53599;DHT22;39485;45.702;11.364;2023-03-01T04:57:29;2.10;99.90
53599;DHT22;39485;45.702;11.364;2023-03-01T04:59:55;2.10;99.90
53599;DHT22;39485;45.702;11.364;2023-03-01T05:02:20;2.10;99.90
53599;DHT22;39485;45.702;11.364;2023-03-01T05:04:46;2.00;99.90
53599;DHT22;39485;45.702;11.364;2023-03-01T05:07:12;2.10;99.90
53599;DHT22;39485;45.702;11.364;2023-03-01T05:09:38;2.10;99.90
53599;DHT22;39485;45.702;11.364;2023-03-01T05:12:04;2.10;99.90
53599;DHT22;39485;45.702;11.364;2023-03-01T05:14:30;2.10;99.90
53599;DHT22;39485;45.702;11.364;2023-03-01T05:16:55;2.10;99.90
53599;DHT22;39485;45.702;11.364;2023-03-01T05:19:29;2.10;99.90
53599;DHT22;39485;45.702;11.364;2023-03-01T05:21:56;2.20;99.90
53599;DHT22;39485;45.702;11.364;2023-03-01T05:24:33;2.20;99.90
53599;DHT22;39485;45.702;11.364;2023-03-01T05:27:00;2.20;99.90
53599;DHT22;39485;45.702;11.364;2023-03-01T05:29:27;2.30;99.90
53599;DHT22;39485;45.702;11.364;2023-03-01T05:31:59;2.30;99.90
53599;DHT22;39485;45.702;11.364;2023-03-01T05:34:28;2.30;99.90
53599;DHT22;39485;45.702;11.364;2023-03-01T05:36:54;2.30;99.90
53599;DHT22;39485;45.702;11.364;2023-03-01T05:39:21;2.40;99.90
53599;DHT22;39485;45.702;11.364;2023-03-01T05:41:59;2.40;99.90
53599;DHT22;39485;45.702;11.364;2023-03-01T05:44:26;2.40;99.90
53599;DHT22;39485;45.702;11.364;2023-03-01T05:46:52;2.40;99.90
53599;DHT22;39485;45.702;11.364;2023-03-01T05:49:17;2.50;99.90
53599;DHT22;39485;45.702;11.364;2023-03-01T05:51:48;2.50;99.90
53599;DHT22;39485;45.702;11.364;2023-03-01T05:54:15;2.50;99.90
53599;DHT22;39485;45.702;11.364;2023-03-01T05:56:40;2.60;99.90
53599;DHT22;39485;45.702;11.364;2023-03-01T05:59:06;2.60;99.90
53599;DHT22;39485;45.702;11.364;2023-03-01T06:01:33;2.60;99.90
53599;DHT22;39485;45.702;11.364;2023-03-01T06:03:58;2.60;99.90
53599;DHT22;39485;45.702;11.364;2023-03-01T06:06:25;2.60;99.90
53599;DHT22;39485;45.702;11.364;2023-03-01T06:08:51;2.70;99.90
53599;DHT22;39485;45.702;11.364;2023-03-01T06:11:17;2.70;99.90
53599;DHT22;39485;45.702;11.364;2023-03-01T06:13:44;2.70;99.90
53599;DHT22;39485;45.702;11.364;2023-03-01T06:16:10;2.70;99.90
53599;DHT22;39485;45.702;11.364;2023-03-01T06:18:37;2.80;99.90
53599;DHT22;39485;45.702;11.364;2023-03-01T06:21:03;2.80;99.90
53599;DHT22;39485;45.702;11.364;2023-03-01T06:23:30;2.80;99.90
53599;DHT22;39485;45.702;11.364;2023-03-01T06:25:55;2.90;99.90
53599;DHT22;39485;45.702;11.364;2023-03-01T06:28:21;2.90;99.90
53599;DHT22;39485;45.702;11.364;2023-03-01T06:30:47;3.00;99.90
53599;DHT22;39485;45.702;11.364;2023-03-01T06:33:13;3.00;99.90
53599;DHT22;39485;45.702;11.364;2023-03-01T06:35:39;3.10;99.90
53599;DHT22;39485;45.702;11.364;2023-03-01T06:38:05;3.10;99.90
53599;DHT22;39485;45.702;11.364;2023-03-01T06:40:31;3.10;99.90
53599;DHT22;39485;45.702;11.364;2023-03-01T06:42:58;3.20;99.90
53599;DHT22;39485;45.702;11.364;2023-03-01T06:45:27;3.20;99.90
53599;DHT22;39485;45.702;11.364;2023-03-01T06:48:01;3.20;99.90
53599;DHT22;39485;45.702;11.364;2023-03-01T06:50:27;3.30;99.90
53599;DHT22;39485;45.702;11.364;2023-03-01T06:52:57;3.30;99.90
53599;DHT22;39485;45.702;11.364;2023-03-01T06:55:23;3.40;99.90
53599;DHT22;39485;45.702;11.364;2023-03-01T06:57:53;3.40;99.90
53599;DHT22;39485;45.702;11.364;2023-03-01T07:00:19;3.60;99.90
53599;DHT22;39485;45.702;11.364;2023-03-01T07:02:45;3.70;99.90
53599;DHT22;39485;45.702;11.364;2023-03-01T07:05:11;3.70;99.90
53599;DHT22;39485;45.702;11.364;2023-03-01T07:07:36;3.80;99.90
53599;DHT22;39485;45.702;11.364;2023-03-01T07:10:02;3.90;99.90
53599;DHT22;39485;45.702;11.364;2023-03-01T07:12:28;4.00;99.90
53599;DHT22;39485;45.702;11.364;2023-03-01T07:14:53;4.10;99.90
53599;DHT22;39485;45.702;11.364;2023-03-01T07:17:20;4.20;99.90
53599;DHT22;39485;45.702;11.364;2023-03-01T07:19:45;4.30;99.90
53599;DHT22;39485;45.702;11.364;2023-03-01T07:22:11;4.40;99.90
53599;DHT22;39485;45.702;11.364;2023-03-01T07:24:36;4.50;99.90
53599;DHT22;39485;45.702;11.364;2023-03-01T07:27:02;4.60;99.90
53599;DHT22;39485;45.702;11.364;2023-03-01T07:29:28;4.70;99.90
53599;DHT22;39485;45.702;11.364;2023-03-01T07:31:54;4.80;99.90
53599;DHT22;39485;45.702;11.364;2023-03-01T07:34:20;4.90;99.90
53599;DHT22;39485;45.702;11.364;2023-03-01T07:36:45;5.00;99.90
53599;DHT22;39485;45.702;11.364;2023-03-01T07:39:11;5.10;99.90
53599;DHT22;39485;45.702;11.364;2023-03-01T07:41:37;5.20;99.90
53599;DHT22;39485;45.702;11.364;2023-03-01T07:44:03;5.30;99.90
53599;DHT22;39485;45.702;11.364;2023-03-01T07:46:29;5.40;99.90
53599;DHT22;39485;45.702;11.364;2023-03-01T07:48:55;5.50;99.90
53599;DHT22;39485;45.702;11.364;2023-03-01T07:51:21;5.50;99.90
53599;DHT22;39485;45.702;11.364;2023-03-01T07:53:47;5.70;99.90
53599;DHT22;39485;45.702;11.364;2023-03-01T07:56:14;5.70;99.90
53599;DHT22;39485;45.702;11.364;2023-03-01T07:58:41;5.80;99.90
53599;DHT22;39485;45.702;11.364;2023-03-01T08:01:10;5.90;99.90
53599;DHT22;39485;45.702;11.364;2023-03-01T08:03:36;6.00;99.90
53599;DHT22;39485;45.702;11.364;2023-03-01T08:06:04;6.00;99.90
53599;DHT22;39485;45.702;11.364;2023-03-01T08:08:30;6.10;99.90
53599;DHT22;39485;45.702;11.364;2023-03-01T08:10:57;6.20;99.90
53599;DHT22;39485;45.702;11.364;2023-03-01T08:13:23;6.30;99.90
53599;DHT22;39485;45.702;11.364;2023-03-01T08:15:49;6.40;99.90
53599;DHT22;39485;45.702;11.364;2023-03-01T08:18:16;6.50;99.90
53599;DHT22;39485;45.702;11.364;2023-03-01T08:20:42;6.60;99.90
53599;DHT22;39485;45.702;11.364;2023-03-01T08:23:07;6.70;99.90
53599;DHT22;39485;45.702;11.364;2023-03-01T08:25:33;6.80;99.90
53599;DHT22;39485;45.702;11.364;2023-03-01T08:27:59;6.90;99.90
53599;DHT22;39485;45.702;11.364;2023-03-01T08:30:25;7.00;99.90
53599;DHT22;39485;45.702;11.364;2023-03-01T08:32:51;7.20;99.90
53599;DHT22;39485;45.702;11.364;2023-03-01T08:35:17;7.20;99.90
53599;DHT22;39485;45.702;11.364;2023-03-01T08:37:43;7.40;99.90
53599;DHT22;39485;45.702;11.364;2023-03-01T08:40:09;7.50;99.90
53599;DHT22;39485;45.702;11.364;2023-03-01T08:42:36;7.60;99.90
53599;DHT22;39485;45.702;11.364;2023-03-01T08:45:03;7.70;99.90
53599;DHT22;39485;45.702;11.364;2023-03-01T08:47:28;7.70;99.90
53599;DHT22;39485;45.702;11.364;2023-03-01T08:49:54;7.70;99.90
53599;DHT22;39485;45.702;11.364;2023-03-01T08:52:20;7.70;99.90
53599;DHT22;39485;45.702;11.364;2023-03-01T08:54:47;7.80;99.90
53599;DHT22;39485;45.702;11.364;2023-03-01T08:57:14;7.70;99.90
53599;DHT22;39485;45.702;11.364;2023-03-01T08:59:40;7.80;99.90
53599;DHT22;39485;45.702;11.364;2023-03-01T09:02:19;7.80;99.90
53599;DHT22;39485;45.702;11.364;2023-03-01T09:04:45;7.80;99.90
53599;DHT22;39485;45.702;11.364;2023-03-01T09:07:11;7.90;99.90
53599;DHT22;39485;45.702;11.364;2023-03-01T09:09:37;8.00;99.90
53599;DHT22;39485;45.702;11.364;2023-03-01T09:12:03;8.10;99.90
53599;DHT22;39485;45.702;11.364;2023-03-01T09:14:29;8.10;99.90
53599;DHT22;39485;45.702;11.364;2023-03-01T09:16:55;8.10;99.90
53599;DHT22;39485;45.702;11.364;2023-03-01T09:19:21;8.10;99.90
53599;DHT22;39485;45.702;11.364;2023-03-01T09:21:47;8.20;99.90
53599;DHT22;39485;45.702;11.364;2023-03-01T09:24:22;8.10;99.90
53599;DHT22;39485;45.702;11.364;2023-03-01T09:26:48;8.10;99.60
53599;DHT22;39485;45.702;11.364;2023-03-01T09:29:15;8.10;99.40
53599;DHT22;39485;45.702;11.364;2023-03-01T09:31:42;8.20;99.60
53599;DHT22;39485;45.702;11.364;2023-03-01T09:34:08;8.20;99.40
53599;DHT22;39485;45.702;11.364;2023-03-01T09:36:34;8.30;98.40
53599;DHT22;39485;45.702;11.364;2023-03-01T09:39:00;8.30;97.90
53599;DHT22;39485;45.702;11.364;2023-03-01T09:44:08;8.40;96.50
53599;DHT22;39485;45.702;11.364;2023-03-01T09:46:41;8.40;96.20
53599;DHT22;39485;45.702;11.364;2023-03-01T09:49:17;8.50;96.00
53599;DHT22;39485;45.702;11.364;2023-03-01T09:52:34;8.70;95.50
53599;DHT22;39485;45.702;11.364;2023-03-01T09:54:32;8.80;93.60
53599;DHT22;39485;45.702;11.364;2023-03-01T10:00:10;8.90;92.30
53599;DHT22;39485;45.702;11.364;2023-03-01T10:02:45;9.00;92.20
53599;DHT22;39485;45.702;11.364;2023-03-01T10:05:29;9.10;91.60
53599;DHT22;39485;45.702;11.364;2023-03-01T10:10:46;9.20;91.60
53599;DHT22;39485;45.702;11.364;2023-03-01T10:19:02;9.60;91.10
53599;DHT22;39485;45.702;11.364;2023-03-01T10:21:29;9.80;90.90
53599;DHT22;39485;45.702;11.364;2023-03-01T10:24:10;9.80;90.10
53599;DHT22;39485;45.702;11.364;2023-03-01T10:29:14;10.00;89.50
53599;DHT22;39485;45.702;11.364;2023-03-01T10:31:47;10.10;88.70
53599;DHT22;39485;45.702;11.364;2023-03-01T10:34:26;10.20;88.10
53599;DHT22;39485;45.702;11.364;2023-03-01T10:36:56;10.20;86.50
53599;DHT22;39485;45.702;11.364;2023-03-01T10:39:24;10.20;86.60
53599;DHT22;39485;45.702;11.364;2023-03-01T10:42:00;10.20;86.70
53599;DHT22;39485;45.702;11.364;2023-03-01T10:44:47;10.20;86.50
53599;DHT22;39485;45.702;11.364;2023-03-01T10:47:24;10.20;85.90
53599;DHT22;39485;45.702;11.364;2023-03-01T10:49:59;10.20;85.60
53599;DHT22;39485;45.702;11.364;2023-03-01T10:52:31;10.10;86.10
53599;DHT22;39485;45.702;11.364;2023-03-01T10:55:17;10.00;86.00
53599;DHT22;39485;45.702;11.364;2023-03-01T10:57:48;10.00;86.50
53599;DHT22;39485;45.702;11.364;2023-03-01T11:00:20;9.90;85.10
53599;DHT22;39485;45.702;11.364;2023-03-01T11:03:11;9.80;86.10
53599;DHT22;39485;45.702;11.364;2023-03-01T11:05:35;9.80;86.40
53599;DHT22;39485;45.702;11.364;2023-03-01T11:08:02;9.80;86.40
53599;DHT22;39485;45.702;11.364;2023-03-01T11:10:32;9.80;86.30
53599;DHT22;39485;45.702;11.364;2023-03-01T11:13:14;9.80;86.30
53599;DHT22;39485;45.702;11.364;2023-03-01T11:15:40;9.80;86.10
53599;DHT22;39485;45.702;11.364;2023-03-01T11:18:21;9.80;86.20
53599;DHT22;39485;45.702;11.364;2023-03-01T11:20:48;9.80;85.90
53599;DHT22;39485;45.702;11.364;2023-03-01T11:23:17;9.70;86.00
53599;DHT22;39485;45.702;11.364;2023-03-01T11:25:50;9.70;86.30
53599;DHT22;39485;45.702;11.364;2023-03-01T11:28:19;9.70;86.80
53599;DHT22;39485;45.702;11.364;2023-03-01T11:36:39;9.60;87.40
53599;DHT22;39485;45.702;11.364;2023-03-01T11:40:02;9.50;87.80
53599;DHT22;39485;45.702;11.364;2023-03-01T11:44:46;9.30;89.00
53599;DHT22;39485;45.702;11.364;2023-03-01T11:47:28;9.30;89.60
53599;DHT22;39485;45.702;11.364;2023-03-01T11:52:39;9.20;90.40
53599;DHT22;39485;45.702;11.364;2023-03-01T12:15:39;9.20;93.60
53599;DHT22;39485;45.702;11.364;2023-03-01T12:19:03;9.20;94.00
53599;DHT22;39485;45.702;11.364;2023-03-01T12:24:00;9.30;94.80
53599;DHT22;39485;45.702;11.364;2023-03-01T12:26:44;9.20;95.10
53599;DHT22;39485;45.702;11.364;2023-03-01T12:40:26;9.20;97.20
53599;DHT22;39485;45.702;11.364;2023-03-01T12:43:20;9.10;97.40
53599;DHT22;39485;45.702;11.364;2023-03-01T12:45:57;9.10;98.10
53599;DHT22;39485;45.702;11.364;2023-03-01T12:51:26;9.00;99.90
53599;DHT22;39485;45.702;11.364;2023-03-01T12:53:55;9.00;99.90
53599;DHT22;39485;45.702;11.364;2023-03-01T12:56:28;9.00;99.90
53599;DHT22;39485;45.702;11.364;2023-03-01T13:07:15;8.90;99.90
53599;DHT22;39485;45.702;11.364;2023-03-01T13:10:21;8.80;99.90
53599;DHT22;39485;45.702;11.364;2023-03-01T13:17:51;8.80;99.90
53599;DHT22;39485;45.702;11.364;2023-03-01T13:20:20;8.70;99.90
53599;DHT22;39485;45.702;11.364;2023-03-01T13:22:47;8.70;99.90
53599;DHT22;39485;45.702;11.364;2023-03-01T13:25:18;8.70;99.90
53599;DHT22;39485;45.702;11.364;2023-03-01T13:27:46;8.80;99.90
53599;DHT22;39485;45.702;11.364;2023-03-01T13:35:56;8.80;99.90
53599;DHT22;39485;45.702;11.364;2023-03-01T13:41:16;8.80;99.90
53599;DHT22;39485;45.702;11.364;2023-03-01T13:43:44;8.80;99.90
53599;DHT22;39485;45.702;11.364;2023-03-01T13:46:18;8.70;99.90
53599;DHT22;39485;45.702;11.364;2023-03-01T13:48:51;8.70;99.90
53599;DHT22;39485;45.702;11.364;2023-03-01T13:51:23;8.70;99.90
53599;DHT22;39485;45.702;11.364;2023-03-01T13:53:51;8.70;99.90
53599;DHT22;39485;45.702;11.364;2023-03-01T13:56:27;8.70;99.90
53599;DHT22;39485;45.702;11.364;2023-03-01T13:58:54;8.70;99.90
53599;DHT22;39485;45.702;11.364;2023-03-01T14:01:35;8.70;99.90
53599;DHT22;39485;45.702;11.364;2023-03-01T14:04:01;8.70;99.90
53599;DHT22;39485;45.702;11.364;2023-03-01T14:06:32;8.80;99.90
53599;DHT22;39485;45.702;11.364;2023-03-01T14:17:14;8.80;99.90
53599;DHT22;39485;45.702;11.364;2023-03-01T14:19:46;8.80;99.90
53599;DHT22;39485;45.702;11.364;2023-03-01T14:24:40;8.80;99.70
53599;DHT22;39485;45.702;11.364;2023-03-01T14:27:13;8.80;99.50
53599;DHT22;39485;45.702;11.364;2023-03-01T14:29:40;8.80;99.50
53599;DHT22;39485;45.702;11.364;2023-03-01T14:34:35;8.80;99.90
53599;DHT22;39485;45.702;11.364;2023-03-01T14:39:42;8.70;99.90
53599;DHT22;39485;45.702;11.364;2023-03-01T14:42:08;8.60;99.90
53599;DHT22;39485;45.702;11.364;2023-03-01T14:44:34;8.60;99.90
53599;DHT22;39485;45.702;11.364;2023-03-01T14:47:02;8.60;99.90
53599;DHT22;39485;45.702;11.364;2023-03-01T14:49:30;8.50;99.90
53599;DHT22;39485;45.702;11.364;2023-03-01T14:52:07;8.50;99.90
53599;DHT22;39485;45.702;11.364;2023-03-01T14:54:43;8.40;99.90
53599;DHT22;39485;45.702;11.364;2023-03-01T14:57:32;8.30;99.90
53599;DHT22;39485;45.702;11.364;2023-03-01T14:59:59;8.20;99.90
53599;DHT22;39485;45.702;11.364;2023-03-01T15:02:28;8.20;99.90
53599;DHT22;39485;45.702;11.364;2023-03-01T15:04:58;8.20;99.90
53599;DHT22;39485;45.702;11.364;2023-03-01T15:07:34;8.20;99.90
53599;DHT22;39485;45.702;11.364;2023-03-01T15:10:02;8.20;99.90
53599;DHT22;39485;45.702;11.364;2023-03-01T15:14:58;8.10;99.90
53599;DHT22;39485;45.702;11.364;2023-03-01T15:17:31;8.10;99.90
53599;DHT22;39485;45.702;11.364;2023-03-01T15:19:57;8.10;99.90
53599;DHT22;39485;45.702;11.364;2023-03-01T15:22:26;8.10;99.90
53599;DHT22;39485;45.702;11.364;2023-03-01T15:24:52;8.10;99.90
53599;DHT22;39485;45.702;11.364;2023-03-01T15:27:21;8.00;99.90
53599;DHT22;39485;45.702;11.364;2023-03-01T15:29:58;8.10;99.90
53599;DHT22;39485;45.702;11.364;2023-03-01T15:32:35;8.10;99.90
53599;DHT22;39485;45.702;11.364;2023-03-01T15:35:33;8.10;99.90
53599;DHT22;39485;45.702;11.364;2023-03-01T15:38:00;8.00;99.90
53599;DHT22;39485;45.702;11.364;2023-03-01T15:40:28;8.00;99.90
53599;DHT22;39485;45.702;11.364;2023-03-01T15:43:01;8.00;99.90
53599;DHT22;39485;45.702;11.364;2023-03-01T15:45:29;8.00;99.90
53599;DHT22;39485;45.702;11.364;2023-03-01T15:47:57;8.00;99.90
53599;DHT22;39485;45.702;11.364;2023-03-01T15:50:26;8.00;99.90
53599;DHT22;39485;45.702;11.364;2023-03-01T15:52:53;8.00;99.90
53599;DHT22;39485;45.702;11.364;2023-03-01T15:55:28;8.00;99.90
53599;DHT22;39485;45.702;11.364;2023-03-01T15:58:13;8.00;99.90
53599;DHT22;39485;45.702;11.364;2023-03-01T16:00:39;8.00;99.90
53599;DHT22;39485;45.702;11.364;2023-03-01T16:03:05;8.00;99.90
53599;DHT22;39485;45.702;11.364;2023-03-01T16:05:33;8.00;99.90
53599;DHT22;39485;45.702;11.364;2023-03-01T16:08:03;8.00;99.90
53599;DHT22;39485;45.702;11.364;2023-03-01T16:10:30;7.90;99.90
53599;DHT22;39485;45.702;11.364;2023-03-01T16:12:56;7.90;99.90
53599;DHT22;39485;45.702;11.364;2023-03-01T16:15:28;7.90;99.90
53599;DHT22;39485;45.702;11.364;2023-03-01T16:17:54;7.90;99.90
53599;DHT22;39485;45.702;11.364;2023-03-01T16:20:19;7.90;99.90
53599;DHT22;39485;45.702;11.364;2023-03-01T16:22:46;7.90;99.90
53599;DHT22;39485;45.702;11.364;2023-03-01T16:25:16;7.90;99.90
53599;DHT22;39485;45.702;11.364;2023-03-01T16:27:44;7.80;99.90
53599;DHT22;39485;45.702;11.364;2023-03-01T16:30:11;7.80;99.90
53599;DHT22;39485;45.702;11.364;2023-03-01T16:32:41;7.70;99.90
53599;DHT22;39485;45.702;11.364;2023-03-01T16:35:07;7.70;99.90
53599;DHT22;39485;45.702;11.364;2023-03-01T16:37:34;7.70;99.90
53599;DHT22;39485;45.702;11.364;2023-03-01T16:40:00;7.60;99.90
53599;DHT22;39485;45.702;11.364;2023-03-01T16:42:27;7.60;99.90
53599;DHT22;39485;45.702;11.364;2023-03-01T16:44:55;7.50;99.90
53599;DHT22;39485;45.702;11.364;2023-03-01T16:47:22;7.40;99.90
53599;DHT22;39485;45.702;11.364;2023-03-01T16:49:51;7.40;99.90
53599;DHT22;39485;45.702;11.364;2023-03-01T16:52:16;7.30;99.90
53599;DHT22;39485;45.702;11.364;2023-03-01T16:54:42;7.20;99.90
53599;DHT22;39485;45.702;11.364;2023-03-01T16:57:08;7.10;99.90
53599;DHT22;39485;45.702;11.364;2023-03-01T16:59:33;7.00;99.90
53599;DHT22;39485;45.702;11.364;2023-03-01T17:01:59;6.90;99.90
53599;DHT22;39485;45.702;11.364;2023-03-01T17:04:24;6.90;99.90
53599;DHT22;39485;45.702;11.364;2023-03-01T17:06:50;6.90;99.90
53599;DHT22;39485;45.702;11.364;2023-03-01T17:09:16;6.80;99.90
53599;DHT22;39485;45.702;11.364;2023-03-01T17:11:42;6.80;99.90
53599;DHT22;39485;45.702;11.364;2023-03-01T17:14:10;6.70;99.90
53599;DHT22;39485;45.702;11.364;2023-03-01T17:16:35;6.70;99.90
53599;DHT22;39485;45.702;11.364;2023-03-01T17:19:02;6.70;99.90
53599;DHT22;39485;45.702;11.364;2023-03-01T17:21:28;6.70;99.90
53599;DHT22;39485;45.702;11.364;2023-03-01T17:23:57;6.70;99.90
53599;DHT22;39485;45.702;11.364;2023-03-01T17:26:22;6.70;99.90
53599;DHT22;39485;45.702;11.364;2023-03-01T17:28:48;6.60;99.90
53599;DHT22;39485;45.702;11.364;2023-03-01T17:31:17;6.60;99.90
53599;DHT22;39485;45.702;11.364;2023-03-01T17:33:43;6.60;99.90